createdAt,value
2017-12-10T00:03:56.630Z,80.12
2017-12-10T00:08:57.474Z,80.00
2017-12-10T00:13:58.282Z,79.68
2017-12-10T00:18:59.072Z,80.21
2017-12-10T00:23:59.874Z,80.54
2017-12-10T00:29:00.743Z,80.44
2017-12-10T00:34:04.826Z,81.39
2017-12-10T00:39:05.644Z,80.20
2017-12-10T00:44:06.961Z,80.24
2017-12-10T00:49:07.760Z,80.91
2017-12-10T00:54:08.808Z,80.67
2017-12-10T00:59:09.602Z,79.97
2017-12-10T01:04:10.401Z,80.72
2017-12-10T01:09:14.363Z,80.19
2017-12-10T01:14:15.181Z,80.76
2017-12-10T01:19:15.979Z,80.25
2017-12-10T01:24:16.769Z,80.60
2017-12-10T01:29:17.548Z,79.57
2017-12-10T01:34:18.358Z,79.97
2017-12-10T01:39:19.166Z,80.50
2017-12-10T01:44:19.957Z,80.06
2017-12-10T01:49:20.746Z,78.77
2017-12-10T01:54:21.533Z,78.61
2017-12-10T01:59:25.876Z,78.86
2017-12-10T02:04:26.705Z,79.24
2017-12-10T02:09:27.540Z,80.15
2017-12-10T02:14:28.352Z,79.38
2017-12-10T02:19:29.170Z,80.07
2017-12-10T02:24:29.988Z,80.60
2017-12-10T02:29:30.790Z,79.14
2017-12-10T02:34:31.587Z,80.02
2017-12-10T02:39:32.430Z,80.49
2017-12-10T02:44:35.268Z,79.77
2017-12-10T02:49:36.064Z,80.44
2017-12-10T02:54:36.857Z,80.73
2017-12-10T02:59:37.657Z,81.21
2017-12-10T03:04:38.719Z,81.71
2017-12-10T03:09:39.536Z,81.71
2017-12-10T03:14:40.337Z,81.91
2017-12-10T03:19:41.120Z,81.92
2017-12-10T03:24:41.952Z,82.23
2017-12-10T03:29:42.738Z,82.86
2017-12-10T03:34:50.204Z,82.88
2017-12-10T03:39:51.014Z,82.94
2017-12-10T03:44:51.811Z,83.39
2017-12-10T03:49:52.613Z,83.52
2017-12-10T03:54:53.422Z,83.82
2017-12-10T03:59:54.220Z,84.04
2017-12-10T04:04:55.043Z,85.07
2017-12-10T04:09:55.841Z,85.78
2017-12-10T04:14:56.616Z,85.71
2017-12-10T04:19:57.409Z,86.33
2017-12-10T04:24:58.196Z,86.87
2017-12-10T04:29:58.974Z,87.38
2017-12-10T04:34:59.749Z,87.92
2017-12-10T04:40:00.537Z,88.70
2017-12-10T04:45:01.361Z,88.30
2017-12-10T04:50:02.084Z,88.11
2017-12-10T04:55:02.863Z,88.53
2017-12-10T05:00:03.682Z,88.97
2017-12-10T05:05:04.453Z,89.17
2017-12-10T05:10:05.229Z,88.56
2017-12-10T05:15:06.025Z,88.38
2017-12-10T05:20:06.806Z,88.47
2017-12-10T05:25:07.602Z,88.05
2017-12-10T05:30:08.409Z,88.03
2017-12-10T05:35:09.198Z,87.55
2017-12-10T05:40:09.968Z,87.49
2017-12-10T05:45:10.760Z,87.76
2017-12-10T05:50:11.539Z,88.00
2017-12-10T05:55:12.324Z,88.22
2017-12-10T06:00:14.017Z,88.82
2017-12-10T06:05:14.810Z,89.83
2017-12-10T06:10:15.681Z,90.21
2017-12-10T06:15:16.503Z,89.88
2017-12-10T06:20:17.287Z,90.54
2017-12-10T06:25:18.044Z,90.97
2017-12-10T06:30:18.849Z,91.11
2017-12-10T06:35:19.611Z,91.32
2017-12-10T06:40:20.397Z,91.32
2017-12-10T06:45:21.160Z,91.54
2017-12-10T06:50:21.937Z,91.78
2017-12-10T06:55:22.731Z,92.03
2017-12-10T07:00:23.533Z,92.00
2017-12-10T07:05:24.324Z,92.01
2017-12-10T07:10:25.113Z,91.17
2017-12-10T07:15:25.917Z,90.02
2017-12-10T07:20:26.689Z,87.70
2017-12-10T07:25:28.260Z,86.61
2017-12-10T07:30:29.097Z,86.80
2017-12-10T07:35:29.921Z,86.31
2017-12-10T07:40:30.750Z,84.97
2017-12-10T07:45:31.556Z,84.90
2017-12-10T07:50:32.348Z,83.27
2017-12-10T07:55:33.142Z,81.91
2017-12-10T08:00:33.958Z,81.19
2017-12-10T08:05:34.785Z,79.71
2017-12-10T08:10:35.593Z,78.45
2017-12-10T08:15:36.385Z,77.19
2017-12-10T08:20:37.229Z,77.96
2017-12-10T08:25:38.007Z,76.59
2017-12-10T08:30:38.782Z,72.69
2017-12-10T08:35:39.586Z,71.25
2017-12-10T08:40:40.401Z,72.83
2017-12-10T08:45:41.224Z,70.81
2017-12-10T08:50:42.002Z,69.39
2017-12-10T08:55:42.866Z,68.43
2017-12-10T09:00:43.698Z,66.37
2017-12-10T09:05:44.533Z,65.98
2017-12-10T09:10:45.289Z,67.00
2017-12-10T09:15:46.098Z,70.23
2017-12-10T09:20:46.902Z,68.85
2017-12-10T09:25:47.785Z,66.52
2017-12-10T09:30:48.587Z,67.53
2017-12-10T09:35:49.392Z,69.26
2017-12-10T09:40:50.214Z,68.51
2017-12-10T09:45:51.012Z,66.88
2017-12-10T09:51:12.110Z,66.08
2017-12-10T09:56:12.899Z,66.77
2017-12-10T10:01:13.689Z,66.54
2017-12-10T10:06:14.497Z,64.63
2017-12-10T10:11:15.284Z,66.46
2017-12-10T10:16:16.093Z,67.18
2017-12-10T10:21:16.892Z,64.60
2017-12-10T10:26:17.717Z,64.81
2017-12-10T10:31:18.516Z,65.06
2017-12-10T10:36:19.329Z,65.30
2017-12-10T10:41:20.124Z,64.55
2017-12-10T10:46:20.934Z,66.93
2017-12-10T10:51:21.772Z,64.46
2017-12-10T10:56:22.566Z,66.19
2017-12-10T11:01:23.359Z,69.42
2017-12-10T11:06:24.139Z,69.21
2017-12-10T11:11:24.925Z,69.16
2017-12-10T11:16:25.705Z,70.72
2017-12-10T11:21:26.539Z,68.19
2017-12-10T11:26:27.856Z,69.91
2017-12-10T11:31:28.942Z,71.81
2017-12-10T11:36:30.250Z,73.32
2017-12-10T11:41:31.675Z,73.13
2017-12-10T11:46:32.494Z,73.42
2017-12-10T11:51:33.294Z,73.82
2017-12-10T11:56:34.093Z,74.35
2017-12-10T12:01:34.901Z,74.01
2017-12-10T12:06:35.721Z,75.70
2017-12-10T12:11:36.518Z,74.38
2017-12-10T12:16:37.313Z,75.72
2017-12-10T12:21:38.145Z,75.21
2017-12-10T12:26:38.920Z,73.66
2017-12-10T12:31:40.058Z,73.16
2017-12-10T12:36:41.461Z,72.47
2017-12-10T12:41:42.354Z,69.97
2017-12-10T12:46:43.138Z,71.17
2017-12-10T12:51:43.898Z,70.11
2017-12-10T12:56:44.698Z,69.51
2017-12-10T13:01:45.499Z,66.91
2017-12-10T13:06:46.294Z,68.38
2017-12-10T13:11:47.121Z,68.50
2017-12-10T13:16:48.084Z,66.90
2017-12-10T13:21:48.937Z,68.22
2017-12-10T13:26:49.717Z,71.64
2017-12-10T13:31:50.549Z,76.77
2017-12-10T13:36:51.345Z,80.75
2017-12-10T13:41:52.178Z,86.18
2017-12-10T13:46:53.809Z,86.71
2017-12-10T13:51:54.643Z,88.42
2017-12-10T13:56:55.432Z,90.29
2017-12-10T14:01:56.238Z,91.27
2017-12-10T14:06:57.031Z,91.34
2017-12-10T14:11:57.832Z,91.94
2017-12-10T14:16:58.630Z,92.06
2017-12-10T14:21:59.433Z,92.06
2017-12-10T14:27:00.242Z,92.28
2017-12-10T14:32:01.046Z,93.25
2017-12-10T14:37:01.845Z,93.95
2017-12-10T14:42:04.645Z,93.44
2017-12-10T14:47:05.469Z,93.74
2017-12-10T14:52:06.271Z,93.70
2017-12-10T14:57:07.085Z,94.07
2017-12-10T15:02:07.913Z,94.37
2017-12-10T15:07:08.739Z,94.35
2017-12-10T15:12:09.546Z,94.40
2017-12-10T15:17:10.342Z,94.27
2017-12-10T15:22:11.165Z,93.94
2017-12-10T15:27:11.979Z,93.80
2017-12-10T15:32:12.804Z,93.91
2017-12-10T15:37:13.604Z,93.75
2017-12-10T15:42:14.406Z,93.65
2017-12-10T15:47:15.201Z,93.66
2017-12-10T15:52:16.005Z,93.24
2017-12-10T15:57:16.814Z,93.46
2017-12-10T16:02:17.629Z,93.67
2017-12-10T16:07:18.745Z,93.67
2017-12-10T16:12:19.627Z,93.60
2017-12-10T16:17:20.424Z,93.36
2017-12-10T16:22:21.249Z,93.40
2017-12-10T16:27:22.051Z,93.02
2017-12-10T16:32:22.839Z,93.37
2017-12-10T16:37:23.659Z,93.42
2017-12-10T16:42:24.474Z,93.34
2017-12-10T16:47:25.267Z,93.76
2017-12-10T16:52:26.062Z,93.56
2017-12-10T16:57:26.843Z,93.79
2017-12-10T17:02:27.707Z,93.66
2017-12-10T17:07:28.445Z,93.50
2017-12-10T17:12:29.234Z,93.55
2017-12-10T17:17:30.046Z,93.58
2017-12-10T17:22:30.849Z,93.49
2017-12-10T17:27:31.656Z,93.25
2017-12-10T17:32:32.428Z,93.40
2017-12-10T17:37:33.194Z,93.36
2017-12-10T17:42:33.979Z,92.93
2017-12-10T17:47:34.842Z,93.14
2017-12-10T17:52:35.784Z,93.01
2017-12-10T17:57:36.574Z,93.27
2017-12-10T18:02:37.353Z,93.34
2017-12-10T18:07:38.138Z,93.46
2017-12-10T18:12:38.934Z,93.63
2017-12-10T18:17:39.723Z,93.68
2017-12-10T18:22:40.556Z,93.56
2017-12-10T18:27:41.357Z,93.46
2017-12-10T18:32:42.148Z,93.25
2017-12-10T18:37:42.969Z,93.38
2017-12-10T18:42:43.809Z,93.58
2017-12-10T18:47:44.625Z,93.71
2017-12-10T18:52:45.445Z,93.75
2017-12-10T18:57:46.261Z,93.91
2017-12-10T19:02:47.079Z,93.80
2017-12-10T19:07:54.068Z,93.62
2017-12-10T19:13:01.149Z,93.54
2017-12-10T19:18:01.942Z,93.64
2017-12-10T19:23:06.637Z,93.72
2017-12-10T19:28:09.417Z,93.79
2017-12-10T19:33:17.341Z,93.80
2017-12-10T19:38:18.181Z,93.68
2017-12-10T19:43:19.003Z,93.61
2017-12-10T19:48:23.652Z,93.91
2017-12-10T19:53:24.466Z,93.91
2017-12-10T19:58:25.321Z,93.81
2017-12-10T20:03:26.144Z,93.89
2017-12-10T20:08:26.973Z,93.89
2017-12-10T20:13:27.794Z,94.13
2017-12-10T20:18:28.609Z,93.91
2017-12-10T20:23:29.453Z,94.04
2017-12-10T20:28:30.265Z,94.21
2017-12-10T20:33:31.127Z,93.89
2017-12-10T20:38:31.958Z,94.01
2017-12-10T20:43:32.795Z,93.95
2017-12-10T20:48:33.649Z,93.94
2017-12-10T20:53:48.309Z,93.53
2017-12-10T20:58:49.146Z,93.66
2017-12-10T21:03:49.925Z,93.73
2017-12-10T21:08:50.740Z,93.29
2017-12-10T21:13:51.573Z,93.36
2017-12-10T21:18:52.421Z,93.55
2017-12-10T21:29:36.798Z,93.39
2017-12-10T21:34:37.620Z,93.54
2017-12-10T21:39:38.393Z,93.44
2017-12-10T21:44:39.182Z,93.28
2017-12-10T21:49:46.215Z,93.14
2017-12-10T21:54:50.014Z,93.37
2017-12-10T22:00:08.587Z,93.47
2017-12-10T22:05:15.543Z,93.42
2017-12-10T22:10:16.345Z,93.51
2017-12-10T22:15:17.135Z,93.40
2017-12-10T22:20:17.927Z,93.49
2017-12-10T22:25:20.713Z,93.76
2017-12-10T22:30:41.826Z,93.74
2017-12-10T22:35:49.850Z,93.55
2017-12-10T22:40:50.668Z,93.22
2017-12-10T23:24:46.254Z,93.82
2017-12-10T23:29:47.142Z,93.98
2017-12-10T23:34:48.027Z,94.26
2017-12-10T23:40:10.169Z,94.30
2017-12-10T23:45:11.191Z,94.50
2017-12-10T23:50:12.094Z,94.45
2017-12-10T23:55:14.031Z,94.50
